Time;durP1;ratioP1;P1;durP2;ratioP2;P2;SDS_P1;SDS_P2;PMS_P1;PMS_P2;Temp;Humidity;BMP_temperature;BMP_pressure;BME280_temperature;BME280_humidity;BME280_pressure;Samples;Min_cycle;Max_cycle;Signal;HPM_P1;HPM_P2
2021/07/30 00:00:13;;;;;;;6.35;5.57;;;13.70;99.90;;;;;;6334975;22;20101;-89
2021/07/30 00:03:00;;;;;;;8.93;5.75;;;13.60;99.90;;;;;;6336593;22;20084;-90
2021/07/30 00:05:52;;;;;;;7.53;5.60;;;13.60;99.90;;;;;;6335832;22;20022;-90
2021/07/30 00:08:39;;;;;;;9.18;5.65;;;13.60;99.90;;;;;;6337640;22;20483;-90
2021/07/30 00:11:30;;;;;;;11.77;5.90;;;13.60;99.90;;;;;;6335681;22;20103;-90
2021/07/30 00:14:17;;;;;;;9.20;5.38;;;13.50;99.90;;;;;;6335609;22;20021;-89
2021/07/30 00:17:07;;;;;;;6.63;5.25;;;13.40;99.90;;;;;;6335125;22;20042;-89
2021/07/30 00:19:54;;;;;;;8.45;5.07;;;13.40;99.90;;;;;;6336545;22;20046;-90
2021/07/30 00:22:43;;;;;;;9.25;6.13;;;13.30;99.90;;;;;;6334725;22;20038;-90
2021/07/30 00:25:34;;;;;;;9.73;6.22;;;13.30;99.90;;;;;;6336652;22;20038;-90
2021/07/30 00:28:21;;;;;;;9.98;5.82;;;13.30;99.90;;;;;;6335365;22;20043;-90
2021/07/30 00:31:10;;;;;;;9.10;6.53;;;13.30;99.90;;;;;;6337669;22;20032;-92
2021/07/30 00:33:58;;;;;;;11.43;6.93;;;13.30;99.90;;;;;;6334954;22;20018;-90
2021/07/30 00:36:45;;;;;;;15.27;7.35;;;13.20;99.90;;;;;;6334189;22;20103;-89
2021/07/30 00:39:32;;;;;;;11.60;7.45;;;13.20;99.90;;;;;;6334582;22;20027;-90
2021/07/30 00:42:20;;;;;;;10.85;6.80;;;13.20;99.90;;;;;;6335801;22;20023;-90
2021/07/30 00:45:08;;;;;;;8.80;7.40;;;13.20;99.90;;;;;;6334056;22;20022;-89
2021/07/30 00:47:55;;;;;;;9.82;7.40;;;13.10;99.90;;;;;;6313828;22;20038;-89
2021/07/30 00:50:43;;;;;;;9.65;7.10;;;13.00;99.90;;;;;;6332946;22;20098;-91
2021/07/30 00:53:34;;;;;;;8.32;6.75;;;12.90;99.90;;;;;;6333675;22;20026;-90
2021/07/30 00:56:24;;;;;;;11.68;7.18;;;12.80;99.90;;;;;;6333873;22;20096;-90
2021/07/30 00:59:12;;;;;;;9.85;7.25;;;12.70;99.90;;;;;;6335405;22;20415;-89
2021/07/30 01:01:59;;;;;;;11.45;7.30;;;12.70;99.90;;;;;;6337996;22;20030;-91
2021/07/30 01:04:51;;;;;;;10.30;7.45;;;12.60;99.90;;;;;;6336115;22;20448;-90
2021/07/30 01:07:39;;;;;;;9.88;7.97;;;12.60;99.90;;;;;;6336482;22;20080;-90
2021/07/30 01:10:27;;;;;;;9.75;8.18;;;12.50;99.90;;;;;;6335689;22;20026;-90
2021/07/30 01:13:16;;;;;;;9.68;7.50;;;12.70;99.90;;;;;;6335207;22;20417;-90
2021/07/30 01:16:04;;;;;;;11.25;8.10;;;12.70;99.90;;;;;;6333369;22;20271;-90
2021/07/30 01:18:52;;;;;;;10.55;8.60;;;12.60;99.90;;;;;;6335096;22;20023;-90
2021/07/30 01:21:43;;;;;;;11.10;8.23;;;12.60;99.90;;;;;;6338114;22;20151;-89
2021/07/30 01:24:31;;;;;;;10.23;7.40;;;12.60;99.90;;;;;;6337483;22;20076;-91
2021/07/30 01:27:18;;;;;;;11.48;8.02;;;12.50;99.90;;;;;;6332630;22;20027;-90
2021/07/30 01:30:06;;;;;;;11.40;8.55;;;12.40;99.90;;;;;;6334977;22;20081;-90
2021/07/30 01:32:53;;;;;;;9.25;7.68;;;12.40;99.90;;;;;;6336911;22;20065;-90
2021/07/30 01:35:41;;;;;;;13.82;8.07;;;12.30;99.90;;;;;;6336487;22;20030;-91
2021/07/30 01:38:28;;;;;;;10.35;8.05;;;12.30;99.90;;;;;;6338019;22;20023;-89
2021/07/30 01:41:16;;;;;;;12.02;7.72;;;12.30;99.90;;;;;;6335391;22;20022;-93
2021/07/30 01:44:03;;;;;;;12.10;7.57;;;12.30;99.90;;;;;;6335045;22;20356;-93
2021/07/30 01:46:53;;;;;;;12.93;7.40;;;12.30;99.90;;;;;;6304435;22;20015;-92
2021/07/30 01:49:40;;;;;;;8.27;7.28;;;12.20;99.90;;;;;;6304200;22;20030;-89
2021/07/30 01:52:28;;;;;;;9.77;7.60;;;12.10;99.90;;;;;;6305906;22;20044;-90
2021/07/30 01:55:16;;;;;;;13.95;7.82;;;12.00;99.90;;;;;;6305123;22;20027;-90
2021/07/30 01:58:04;;;;;;;11.65;8.82;;;12.00;99.90;;;;;;6303771;22;20100;-90
2021/07/30 02:00:53;;;;;;;13.27;8.70;;;12.10;99.90;;;;;;6305870;22;20074;-91
2021/07/30 02:03:40;;;;;;;10.50;8.48;;;12.10;99.90;;;;;;6306041;22;20031;-90
2021/07/30 02:06:28;;;;;;;12.05;8.82;;;12.10;99.90;;;;;;6305576;22;20030;-90
2021/07/30 02:09:15;;;;;;;12.50;8.52;;;12.10;99.90;;;;;;6284101;22;20023;-90
2021/07/30 02:12:03;;;;;;;11.48;8.45;;;12.10;99.90;;;;;;6305125;22;20038;-91
2021/07/30 02:14:51;;;;;;;10.95;8.07;;;12.10;99.90;;;;;;6306749;22;20053;-92
2021/07/30 02:17:38;;;;;;;12.55;8.25;;;12.00;99.90;;;;;;6306583;22;20030;-92
2021/07/30 02:20:26;;;;;;;10.32;7.78;;;12.00;99.90;;;;;;6305942;22;20019;-92
2021/07/30 02:23:15;;;;;;;13.07;8.15;;;12.00;99.90;;;;;;6304205;22;20023;-92
2021/07/30 02:26:03;;;;;;;10.88;8.25;;;11.90;99.90;;;;;;6304134;22;20088;-91
2021/07/30 02:28:51;;;;;;;11.15;8.82;;;11.70;99.90;;;;;;6307336;22;20412;-92
2021/07/30 02:31:39;;;;;;;10.57;8.45;;;11.60;99.90;;;;;;6304597;22;20030;-91
2021/07/30 02:34:27;;;;;;;13.00;8.88;;;11.60;99.90;;;;;;6307273;22;20027;-92
2021/07/30 02:37:14;;;;;;;16.25;9.35;;;11.60;99.90;;;;;;6306914;22;20020;-93
2021/07/30 02:40:02;;;;;;;15.13;9.45;;;11.60;99.90;;;;;;6307045;22;20029;-91
2021/07/30 02:42:49;;;;;;;12.23;8.07;;;11.70;99.90;;;;;;6303677;22;20034;-92
2021/07/30 02:45:37;;;;;;;13.38;8.55;;;11.70;99.90;;;;;;6285879;22;20028;-92
2021/07/30 02:48:26;;;;;;;14.25;9.10;;;11.60;99.90;;;;;;6305114;22;20027;-93
2021/07/30 02:51:17;;;;;;;15.10;8.90;;;11.50;99.90;;;;;;6304444;22;20029;-92
2021/07/30 02:54:05;;;;;;;9.35;8.00;;;11.60;99.90;;;;;;6303987;22;20097;-93
2021/07/30 02:56:53;;;;;;;19.50;9.10;;;11.60;99.90;;;;;;6307208;22;20104;-92
2021/07/30 02:59:41;;;;;;;12.35;8.73;;;11.60;99.90;;;;;;6306611;22;20050;-92
2021/07/30 03:02:29;;;;;;;12.95;9.07;;;11.50;99.90;;;;;;6304609;22;20307;-92
2021/07/30 03:05:17;;;;;;;14.10;8.25;;;11.50;99.90;;;;;;6307047;22;20027;-91
2021/07/30 03:08:09;;;;;;;9.57;8.57;;;11.50;99.90;;;;;;6304923;22;20026;-91
2021/07/30 03:10:57;;;;;;;12.17;8.27;;;11.40;99.90;;;;;;6305606;22;20023;-92
2021/07/30 03:13:47;;;;;;;9.43;8.38;;;11.40;99.90;;;;;;6306991;22;20273;-91
2021/07/30 03:16:35;;;;;;;11.38;8.90;;;11.30;99.90;;;;;;6305730;22;20023;-91
2021/07/30 03:19:22;;;;;;;11.27;8.98;;;11.20;99.90;;;;;;6307759;22;20322;-91
2021/07/30 03:22:09;;;;;;;9.23;8.07;;;11.10;99.90;;;;;;6281852;22;20031;-91
2021/07/30 03:24:57;;;;;;;13.43;9.52;;;11.10;99.90;;;;;;6304029;22;20422;-92
2021/07/30 03:27:44;;;;;;;13.75;9.25;;;11.10;99.90;;;;;;6307977;22;20068;-91
2021/07/30 03:30:33;;;;;;;12.55;9.65;;;11.20;99.90;;;;;;6306863;22;20058;-92
2021/07/30 03:33:23;;;;;;;14.70;9.45;;;11.10;99.90;;;;;;6306328;22;20441;-93
2021/07/30 03:36:10;;;;;;;12.05;9.18;;;11.10;99.90;;;;;;6304561;22;20034;-92
2021/07/30 03:38:58;;;;;;;12.32;8.63;;;11.10;99.90;;;;;;6304276;22;20045;-91
2021/07/30 03:41:48;;;;;;;17.00;9.55;;;11.10;99.90;;;;;;6305357;22;20031;-92
2021/07/30 03:44:38;;;;;;;11.02;8.57;;;11.10;99.90;;;;;;6284654;22;20101;-91
2021/07/30 03:47:29;;;;;;;12.45;8.50;;;11.00;99.90;;;;;;6302479;22;20023;-91
2021/07/30 03:50:17;;;;;;;10.68;8.65;;;11.00;99.90;;;;;;6305466;22;20119;-92
2021/07/30 03:53:04;;;;;;;14.27;9.68;;;10.90;99.90;;;;;;6318395;22;20023;-92
2021/07/30 03:55:51;;;;;;;20.30;11.68;;;10.80;99.90;;;;;;6317818;22;20132;-92
2021/07/30 03:58:40;;;;;;;16.10;10.43;;;10.80;99.90;;;;;;6328042;22;20023;-92
2021/07/30 04:01:27;;;;;;;15.13;10.23;;;10.90;99.90;;;;;;6328633;22;20023;-91
2021/07/30 04:04:33;;;;;;;20.27;10.77;;;10.90;99.90;;;;;;6195155;22;20035;-92
2021/07/30 04:07:25;;;;;;;22.90;12.00;;;10.90;99.90;;;;;;6234792;23;20468;-92
2021/07/30 04:10:13;;;;;;;16.42;11.27;;;11.00;99.90;;;;;;6219897;22;20012;-92
2021/07/30 04:13:00;;;;;;;14.57;10.90;;;11.10;99.90;;;;;;6236105;23;20043;-92
2021/07/30 04:15:48;;;;;;;16.50;11.10;;;11.20;99.90;;;;;;6229735;23;20078;-89
2021/07/30 04:18:38;;;;;;;11.00;8.98;;;11.20;99.90;;;;;;6217150;23;20040;-89
2021/07/30 04:21:28;;;;;;;12.60;8.85;;;11.20;99.90;;;;;;6212243;23;20024;-90
2021/07/30 04:24:15;;;;;;;14.68;8.88;;;11.20;99.90;;;;;;6193458;23;20122;-89
2021/07/30 04:27:02;;;;;;;12.55;9.07;;;11.10;99.90;;;;;;6231304;23;20090;-87
2021/07/30 04:29:49;;;;;;;14.80;9.02;;;11.10;99.90;;;;;;6211904;23;20036;-89
2021/07/30 04:32:37;;;;;;;17.80;9.27;;;11.10;99.90;;;;;;6212182;23;20040;-89
2021/07/30 04:35:24;;;;;;;10.93;8.27;;;11.10;99.90;;;;;;6212069;23;20039;-90
2021/07/30 04:38:14;;;;;;;15.45;8.18;;;11.20;99.90;;;;;;6213504;23;20031;-89
2021/07/30 04:41:05;;;;;;;13.00;8.32;;;11.20;99.90;;;;;;6214336;23;20028;-86
2021/07/30 04:43:57;;;;;;;11.20;8.35;;;11.30;99.90;;;;;;6212631;23;20059;-88
2021/07/30 04:46:46;;;;;;;15.13;8.25;;;11.30;99.90;;;;;;6212780;23;20028;-89
2021/07/30 04:49:33;;;;;;;16.65;9.30;;;11.40;99.90;;;;;;6213514;23;20024;-88
2021/07/30 04:52:20;;;;;;;9.18;7.78;;;11.50;99.90;;;;;;6214002;23;20025;-88
2021/07/30 04:55:13;;;;;;;12.32;9.55;;;11.50;99.90;;;;;;6215133;23;20028;-87
2021/07/30 04:58:00;;;;;;;11.07;8.77;;;11.60;99.90;;;;;;6212525;23;20082;-88
2021/07/30 05:00:47;;;;;;;11.75;8.35;;;11.70;99.90;;;;;;6233230;23;20274;-88
2021/07/30 05:03:35;;;;;;;13.77;8.43;;;11.90;99.90;;;;;;6217713;22;20071;-89
2021/07/30 05:06:25;;;;;;;10.40;7.78;;;12.00;99.90;;;;;;6226717;23;20039;-90
2021/07/30 05:09:12;;;;;;;11.18;8.00;;;12.10;99.90;;;;;;6203359;23;20028;-90
2021/07/30 05:12:00;;;;;;;13.82;7.95;;;12.20;99.90;;;;;;6199923;23;20458;-91
2021/07/30 05:14:47;;;;;;;10.93;7.80;;;12.30;99.90;;;;;;6223597;23;20156;-90
2021/07/30 05:17:34;;;;;;;9.85;7.10;;;12.40;99.90;;;;;;6245631;23;20024;-92
2021/07/30 05:20:22;;;;;;;10.57;7.30;;;12.50;99.90;;;;;;6222742;23;20024;-91
2021/07/30 05:23:09;;;;;;;13.02;7.43;;;12.70;99.90;;;;;;6244561;23;20024;-91
2021/07/30 05:25:56;;;;;;;11.88;6.97;;;12.80;99.90;;;;;;6222567;23;20024;-90
2021/07/30 05:28:44;;;;;;;15.13;7.57;;;13.00;99.90;;;;;;6224060;23;20028;-91
2021/07/30 05:31:31;;;;;;;9.38;6.45;;;13.20;99.90;;;;;;6244685;22;20056;-91
2021/07/30 05:34:23;;;;;;;13.27;6.82;;;13.30;99.90;;;;;;6245464;23;20051;-92
2021/07/30 05:37:12;;;;;;;9.52;6.57;;;13.40;99.90;;;;;;6248023;23;20020;-91
2021/07/30 05:39:59;;;;;;;11.30;6.38;;;13.50;99.90;;;;;;6245639;23;20031;-91
2021/07/30 05:42:47;;;;;;;10.77;7.18;;;13.60;99.90;;;;;;6245179;23;20721;-92
2021/07/30 05:45:34;;;;;;;12.07;6.25;;;13.80;99.90;;;;;;6223957;23;20035;-92
2021/07/30 05:48:22;;;;;;;9.27;6.68;;;14.00;99.90;;;;;;6223634;23;20083;-89
2021/07/30 05:51:11;;;;;;;11.30;6.78;;;14.20;99.90;;;;;;6243527;23;20040;-90
2021/07/30 05:53:58;;;;;;;7.07;5.47;;;14.30;99.90;;;;;;6220511;23;20020;-91
2021/07/30 05:56:45;;;;;;;7.45;5.38;;;14.50;99.90;;;;;;6243426;23;20023;-89
2021/07/30 05:59:33;;;;;;;8.85;6.03;;;14.70;99.90;;;;;;6201804;23;20024;-89
2021/07/30 06:02:20;;;;;;;12.18;7.43;;;14.80;99.90;;;;;;6244164;23;20024;-89
2021/07/30 06:05:08;;;;;;;10.63;7.30;;;14.90;99.90;;;;;;6222993;23;20024;-90
2021/07/30 06:07:59;;;;;;;10.18;6.47;;;15.10;99.90;;;;;;6222906;23;20028;-89
2021/07/30 06:10:46;;;;;;;10.07;6.32;;;15.30;99.90;;;;;;6243200;23;20109;-89
2021/07/30 06:13:38;;;;;;;13.48;6.22;;;15.50;99.90;;;;;;6244855;22;20020;-89
2021/07/30 06:16:25;;;;;;;9.15;5.72;;;15.70;99.90;;;;;;6246127;22;20382;-90
2021/07/30 06:19:23;;;;;;;8.30;5.68;;;16.00;99.90;;;;;;6226966;23;20028;-91
2021/07/30 06:22:13;;;;;;;9.05;5.38;;;16.30;99.90;;;;;;6223999;22;20415;-91
2021/07/30 06:25:00;;;;;;;7.15;5.93;;;16.60;99.90;;;;;;6222202;23;20031;-87
2021/07/30 06:27:50;;;;;;;8.32;5.75;;;16.90;99.90;;;;;;6223118;23;20340;-90
2021/07/30 06:30:40;;;;;;;9.10;5.88;;;17.20;99.90;;;;;;6246615;23;20043;-92
2021/07/30 06:33:30;;;;;;;6.45;5.18;;;17.40;99.90;;;;;;6225259;23;20311;-93
2021/07/30 06:36:21;;;;;;;7.70;5.28;;;17.70;99.90;;;;;;6229470;23;20027;-89
2021/07/30 06:39:12;;;;;;;7.15;5.43;;;18.00;99.90;;;;;;6205428;23;20035;-89
2021/07/30 06:42:11;;;;;;;10.60;5.53;;;18.40;99.90;;;;;;6244567;23;20086;-91
2021/07/30 06:45:09;;;;;;;;;;;;;;;;;;;;;
2021/07/30 06:48:11;;;;;;;;;;;;;;;;;;;;;
2021/07/30 06:51:01;;;;;;;7.55;5.32;;;19.30;99.90;;;;;;6245618;23;20102;-92
2021/07/30 06:54:08;;;;;;;8.65;5.50;;;19.50;99.90;;;;;;6228603;23;20020;-93
2021/07/30 06:57:16;;;;;;;8.23;5.28;;;20.10;99.90;;;;;;6162861;23;20100;-94
2021/07/30 07:00:32;;;;;;;7.50;5.30;;;20.40;99.90;;;;;;6155812;23;20107;-91
2021/07/30 07:03:22;;;;;;;6.95;5.30;;;20.60;99.90;;;;;;6155327;23;20053;-89
2021/07/30 07:10:34;;;;;;;5.93;5.15;;;21.10;99.90;;;;;;6157024;23;20013;-90
2021/07/30 07:13:22;;;;;;;9.65;5.75;;;21.40;99.90;;;;;;6188202;23;20031;-88
2021/07/30 07:16:09;;;;;;;7.70;5.65;;;21.10;99.90;;;;;;6213633;23;20078;-87
2021/07/30 07:18:56;;;;;;;7.03;5.53;;;21.20;99.90;;;;;;6232333;23;20175;-86
2021/07/30 07:21:47;;;;;;;8.95;5.95;;;21.20;99.90;;;;;;6233153;23;20154;-87
2021/07/30 07:24:34;;;;;;;7.57;5.38;;;21.30;99.90;;;;;;6212988;23;20106;-85
2021/07/30 07:27:21;;;;;;;5.97;5.38;;;21.30;99.90;;;;;;6213526;23;20035;-86
2021/07/30 07:30:12;;;;;;;7.65;5.40;;;21.40;99.90;;;;;;6212837;23;20442;-89
2021/07/30 07:32:59;;;;;;;12.13;5.43;;;21.70;99.90;;;;;;6216161;23;20024;-88
2021/07/30 07:35:53;;;;;;;6.75;5.20;;;21.90;99.90;;;;;;6216771;23;20502;-90
2021/07/30 07:38:42;;;;;;;7.63;4.90;;;22.10;99.90;;;;;;6212859;23;20035;-88
2021/07/30 07:41:32;;;;;;;10.07;5.63;;;22.00;99.90;;;;;;6232757;23;20025;-91
2021/07/30 07:44:19;;;;;;;5.43;4.88;;;21.90;99.40;;;;;;6212431;23;20025;-92
2021/07/30 07:47:09;;;;;;;5.60;4.95;;;22.10;99.90;;;;;;6192370;23;20040;-88
2021/07/30 07:50:10;;;;;;;7.93;5.47;;;22.50;99.00;;;;;;6212711;22;20024;-89
2021/07/30 07:52:58;;;;;;;9.48;4.22;;;22.70;97.70;;;;;;6243566;23;20028;-91
2021/07/30 08:04:48;;;;;;;7.35;4.80;;;23.20;92.50;;;;;;6132561;23;20087;-90
2021/07/30 08:08:21;;;;;;;7.72;4.57;;;23.50;91.70;;;;;;6151935;23;20061;-92
2021/07/30 08:11:13;;;;;;;6.07;5.07;;;23.70;91.10;;;;;;6065147;23;20034;-90
2021/07/30 08:14:06;;;;;;;5.80;4.53;;;23.40;91.40;;;;;;6064468;23;20057;-90
2021/07/30 08:21:04;;;;;;;8.90;4.07;;;24.20;87.70;;;;;;6161004;23;20091;-90
2021/07/30 08:24:05;;;;;;;5.72;4.35;;;24.90;84.60;;;;;;6122161;23;20037;-88
2021/07/30 08:44:11;;;;;;;6.13;4.22;;;25.30;77.90;;;;;;6212889;23;20028;-89
2021/07/30 09:08:46;;;;;;;7.28;4.82;;;25.50;78.00;;;;;;6180593;23;20103;-89
2021/07/30 09:12:16;;;;;;;6.18;5.10;;;25.80;75.60;;;;;;6184084;23;20132;-91
2021/07/30 09:19:09;;;;;;;6.22;4.57;;;26.90;72.50;;;;;;6178963;23;20005;-92
2021/07/30 09:22:14;;;;;;;6.07;4.80;;;26.30;72.70;;;;;;6179105;23;20025;-89
2021/07/30 09:25:01;;;;;;;5.20;4.70;;;26.30;72.50;;;;;;6184277;23;20036;-93
2021/07/30 09:28:18;;;;;;;5.72;4.50;;;26.60;72.90;;;;;;6189391;23;20040;-91
2021/07/30 09:31:10;;;;;;;6.05;4.47;;;27.30;73.50;;;;;;6162054;23;20021;-92
2021/07/30 09:34:26;;;;;;;8.73;4.90;;;27.90;70.30;;;;;;6147942;23;20084;-92
2021/07/30 09:37:36;;;;;;;6.90;4.88;;;28.20;66.10;;;;;;6186912;23;20104;-93
2021/07/30 09:40:37;;;;;;;;;;;28.20;67.20;;;;;;6097049;23;20026;-91
2021/07/30 09:44:07;;;;;;;4.90;4.40;;;28.10;64.50;;;;;;6099167;23;19962;-90
2021/07/30 09:47:12;;;;;;;6.72;4.72;;;28.20;65.20;;;;;;6095644;23;20318;-91
2021/07/30 09:50:13;;;;;;;5.50;4.43;;;28.60;64.00;;;;;;6136682;23;20037;-91
2021/07/30 09:53:27;;;;;;;;;;;;;;;;;;;;;
2021/07/30 09:56:29;;;;;;;7.22;4.75;;;29.30;61.90;;;;;;6152095;23;20108;-93
2021/07/30 09:59:17;;;;;;;5.10;4.47;;;30.00;59.40;;;;;;6151352;23;20048;-91
2021/07/30 10:02:07;;;;;;;6.80;4.82;;;29.60;58.70;;;;;;6148897;23;20410;-91
2021/07/30 10:04:56;;;;;;;8.15;4.63;;;29.50;59.60;;;;;;6133061;23;20041;-92
2021/07/30 10:07:43;;;;;;;4.93;4.43;;;30.00;58.20;;;;;;6120270;23;20116;-89
2021/07/30 10:10:31;;;;;;;5.43;4.78;;;29.10;57.70;;;;;;6142084;23;20025;-89
2021/07/30 10:13:27;;;;;;;5.13;4.63;;;28.50;60.10;;;;;;6211015;23;20031;-88
2021/07/30 10:16:19;;;;;;;5.60;4.53;;;27.80;62.10;;;;;;6211407;23;20024;-90
2021/07/30 10:19:07;;;;;;;9.02;4.88;;;27.90;62.60;;;;;;6212576;23;20024;-88
2021/07/30 10:21:59;;;;;;;4.95;4.43;;;28.70;59.50;;;;;;6212358;23;20096;-90
2021/07/30 10:24:49;;;;;;;;;;;29.20;61.20;;;;;;6193539;23;20051;-91
2021/07/30 10:27:42;;;;;;;7.25;4.47;;;29.90;58.40;;;;;;6215339;23;19974;-92
2021/07/30 10:30:51;;;;;;;6.65;4.35;;;29.80;57.80;;;;;;6192284;23;20032;-90
2021/07/30 10:33:40;;;;;;;8.23;4.13;;;29.60;58.10;;;;;;6214756;23;20335;-89
2021/07/30 10:36:30;;;;;;;5.82;5.15;;;30.40;57.80;;;;;;6220370;23;20036;-90
2021/07/30 10:39:19;;;;;;;6.32;4.25;;;30.90;55.00;;;;;;6214408;23;20024;-88
2021/07/30 10:42:11;;;;;;;5.55;5.05;;;30.80;55.40;;;;;;6173047;23;20020;-89
2021/07/30 10:45:17;;;;;;;5.30;4.55;;;30.40;55.20;;;;;;6192711;23;20109;-90
2021/07/30 10:48:14;;;;;;;4.82;4.35;;;30.10;55.50;;;;;;6213287;23;20044;-92
2021/07/30 10:51:04;;;;;;;4.90;4.15;;;30.30;56.70;;;;;;6211698;23;20047;-90
2021/07/30 10:53:57;;;;;;;5.57;4.50;;;31.10;56.30;;;;;;6195495;23;20644;-92
2021/07/30 10:56:44;;;;;;;5.78;4.65;;;31.90;52.80;;;;;;6192125;23;20024;-92
2021/07/30 11:00:16;;;;;;;5.57;4.78;;;30.90;54.70;;;;;;6191251;23;20035;-91
2021/07/30 11:03:05;;;;;;;5.97;5.30;;;30.60;54.50;;;;;;6215955;23;20028;-90
2021/07/30 11:06:10;;;;;;;5.82;5.05;;;29.70;55.60;;;;;;6217507;23;20327;-89
2021/07/30 11:09:03;;;;;;;7.68;5.30;;;28.60;59.40;;;;;;6214634;23;20047;-89
2021/07/30 11:11:57;;;;;;;7.43;5.30;;;28.10;60.00;;;;;;6211971;23;20047;-90
2021/07/30 11:14:45;;;;;;;6.65;5.10;;;28.20;59.60;;;;;;6192333;23;20048;-91
2021/07/30 11:17:35;;;;;;;6.10;4.97;;;29.00;59.20;;;;;;6211999;23;20020;-88
2021/07/30 11:20:31;;;;;;;6.45;4.75;;;30.20;57.00;;;;;;6210159;23;20028;-88
2021/07/30 11:23:23;;;;;;;10.60;5.13;;;30.90;54.60;;;;;;6190238;23;20025;-89
2021/07/30 11:26:12;;;;;;;8.48;4.97;;;31.10;57.70;;;;;;6211514;23;20326;-91
2021/07/30 11:29:01;;;;;;;5.22;4.70;;;31.00;55.20;;;;;;6189991;23;20047;-90
2021/07/30 11:32:03;;;;;;;7.70;5.15;;;30.50;55.00;;;;;;6210661;23;20032;-91
2021/07/30 11:34:54;;;;;;;6.43;5.18;;;29.70;57.30;;;;;;6191279;23;20277;-91
2021/07/30 11:37:42;;;;;;;5.85;5.25;;;29.10;57.30;;;;;;6191641;23;20032;-90
2021/07/30 11:40:31;;;;;;;7.20;5.45;;;28.60;59.60;;;;;;6213175;23;20028;-90
2021/07/30 11:43:18;;;;;;;7.32;5.55;;;28.20;61.30;;;;;;6213693;23;20036;-91
2021/07/30 11:46:12;;;;;;;7.13;5.32;;;29.30;59.80;;;;;;6213736;23;20051;-90
2021/07/30 11:49:03;;;;;;;6.30;5.10;;;30.50;56.20;;;;;;6213514;23;20020;-88
2021/07/30 11:51:50;;;;;;;6.40;5.45;;;31.40;55.20;;;;;;6192531;23;20083;-90
2021/07/30 11:54:38;;;;;;;6.75;4.78;;;32.10;52.80;;;;;;6214363;23;20020;-90
2021/07/30 11:57:29;;;;;;;6.10;5.05;;;32.80;51.70;;;;;;6192678;23;20029;-90
2021/07/30 12:00:30;;;;;;;4.90;4.50;;;33.60;50.60;;;;;;6213906;23;20035;-90
2021/07/30 12:03:21;;;;;;;5.85;4.55;;;34.80;49.70;;;;;;6213387;23;20584;-87
2021/07/30 12:06:09;;;;;;;6.38;5.25;;;35.70;48.00;;;;;;6190935;23;20388;-90
2021/07/30 12:08:58;;;;;;;6.30;4.55;;;36.10;46.30;;;;;;6214329;23;20021;-90
2021/07/30 12:11:52;;;;;;;4.95;4.45;;;36.40;44.00;;;;;;6190483;23;20086;-89
2021/07/30 12:14:46;;;;;;;14.77;5.18;;;35.90;43.80;;;;;;6190486;23;20016;-90
2021/07/30 12:17:39;;;;;;;7.38;5.40;;;33.80;47.20;;;;;;6190615;23;20122;-90
2021/07/30 12:20:30;;;;;;;7.88;5.60;;;31.70;50.10;;;;;;6213858;23;20024;-91
2021/07/30 12:23:21;;;;;;;8.57;5.70;;;30.00;54.60;;;;;;6214618;23;20450;-89
2021/07/30 12:26:35;;;;;;;8.43;5.68;;;29.70;55.70;;;;;;6213285;23;20097;-91
2021/07/30 12:29:38;;;;;;;11.35;6.32;;;29.20;56.00;;;;;;6215308;23;20671;-89
2021/07/30 12:32:39;;;;;;;8.15;6.13;;;28.50;57.80;;;;;;6214644;23;20028;-92
2021/07/30 12:35:34;;;;;;;8.88;6.28;;;28.00;60.60;;;;;;6215422;23;20043;-92
2021/07/30 12:38:22;;;;;;;8.68;6.07;;;27.90;60.50;;;;;;6214896;23;20436;-88
2021/07/30 12:41:18;;;;;;;5.78;5.25;;;27.90;60.20;;;;;;6198746;23;20024;-90
2021/07/30 12:44:15;;;;;;;8.02;5.75;;;28.40;59.50;;;;;;6220059;23;20127;-93
2021/07/30 12:47:11;;;;;;;12.45;5.93;;;28.50;59.00;;;;;;6216415;23;20451;-92
2021/07/30 12:50:21;;;;;;;6.90;5.97;;;28.00;61.30;;;;;;6192914;23;20084;-90
2021/07/30 12:53:17;;;;;;;9.00;5.43;;;27.70;61.60;;;;;;6213167;23;20063;-89
2021/07/30 12:56:09;;;;;;;6.78;6.00;;;27.60;63.70;;;;;;6213508;23;20024;-88
2021/07/30 12:58:56;;;;;;;6.55;5.90;;;27.80;63.10;;;;;;6214010;23;20059;-91
2021/07/30 13:01:44;;;;;;;9.35;5.78;;;27.40;62.60;;;;;;6191256;23;20035;-89
2021/07/30 13:04:31;;;;;;;12.50;6.40;;;27.60;63.20;;;;;;6216633;23;20066;-89
2021/07/30 13:07:20;;;;;;;7.70;6.45;;;27.90;62.00;;;;;;6211674;23;20154;-87
2021/07/30 13:10:09;;;;;;;9.20;6.28;;;28.00;62.40;;;;;;6213170;23;20040;-90
2021/07/30 13:12:56;;;;;;;7.78;6.25;;;28.70;61.30;;;;;;6210172;23;20083;-91
2021/07/30 13:15:46;;;;;;;10.43;6.22;;;28.60;60.50;;;;;;6210635;23;20036;-90
2021/07/30 13:18:34;;;;;;;10.55;5.97;;;28.50;60.90;;;;;;6212252;23;20073;-90
2021/07/30 13:21:21;;;;;;;7.88;5.82;;;29.10;61.10;;;;;;6210609;23;20035;-88
2021/07/30 13:24:09;;;;;;;7.20;5.90;;;28.70;61.80;;;;;;6213518;23;20087;-89
2021/07/30 13:26:56;;;;;;;9.27;6.40;;;29.00;59.50;;;;;;6210392;23;20032;-90
2021/07/30 13:29:44;;;;;;;10.98;6.65;;;28.70;61.30;;;;;;6210641;23;20040;-89
2021/07/30 13:32:35;;;;;;;9.98;6.65;;;29.00;61.80;;;;;;6220388;23;20028;-92
2021/07/30 13:36:26;;;;;;;9.70;6.82;;;30.30;58.60;;;;;;6172851;23;20028;-94
2021/07/30 13:39:42;;;;;;;9.15;7.03;;;30.70;56.60;;;;;;6220234;23;20046;-94
2021/07/30 13:42:37;;;;;;;8.45;6.55;;;30.90;56.00;;;;;;6218650;23;20046;-93
2021/07/30 13:45:27;;;;;;;7.25;6.60;;;31.30;54.60;;;;;;6219021;23;20036;-92
2021/07/30 13:48:26;;;;;;;8.98;6.50;;;31.40;54.10;;;;;;6220792;23;20040;-92
2021/07/30 13:51:27;;;;;;;8.15;6.20;;;31.30;54.70;;;;;;6223323;23;20080;-94
2021/07/30 13:54:16;;;;;;;9.20;5.90;;;32.10;52.70;;;;;;6219914;23;20032;-90
2021/07/30 13:57:10;;;;;;;7.45;6.15;;;32.20;51.80;;;;;;6222083;23;20029;-92
2021/07/30 14:00:08;;;;;;;9.50;6.20;;;31.60;53.40;;;;;;6220354;23;20028;-93
2021/07/30 14:03:31;;;;;;;5.95;5.35;;;31.70;52.60;;;;;;6229954;23;20025;-93
2021/07/30 14:06:18;;;;;;;6.18;5.20;;;31.40;53.30;;;;;;6239260;22;20024;-92
2021/07/30 14:09:41;;;;;;;6.50;5.18;;;31.50;53.10;;;;;;6241942;22;20035;-93
2021/07/30 14:12:44;;;;;;;6.82;5.43;;;30.80;53.80;;;;;;6241122;22;20072;-92
2021/07/30 14:15:44;;;;;;;7.20;6.13;;;29.70;56.30;;;;;;6235268;23;20020;-92
2021/07/30 14:18:43;;;;;;;6.60;5.88;;;30.10;56.20;;;;;;6208122;23;20103;-93
2021/07/30 14:21:49;;;;;;;6.80;5.70;;;30.60;54.50;;;;;;6204645;23;20048;-93
2021/07/30 14:24:39;;;;;;;8.02;5.70;;;30.20;55.20;;;;;;6199723;23;20039;-94
2021/07/30 14:27:29;;;;;;;6.28;5.68;;;31.20;53.80;;;;;;6219880;23;20376;-90
2021/07/30 14:30:17;;;;;;;7.93;6.25;;;30.30;55.20;;;;;;6198304;23;20036;-92
2021/07/30 14:33:15;;;;;;;8.57;5.85;;;30.60;55.30;;;;;;6202233;23;20024;-92
2021/07/30 14:36:17;;;;;;;8.50;6.57;;;29.70;56.50;;;;;;6204119;23;20024;-90
2021/07/30 14:39:09;;;;;;;10.20;5.80;;;29.60;56.30;;;;;;6218390;23;20032;-92
2021/07/30 14:42:02;;;;;;;7.75;5.40;;;30.70;54.80;;;;;;6198393;23;20020;-94
2021/07/30 14:44:58;;;;;;;7.95;5.63;;;32.20;52.70;;;;;;6220007;23;20036;-93
2021/07/30 14:47:54;;;;;;;6.50;5.55;;;32.80;51.30;;;;;;6219446;23;20028;-93
2021/07/30 14:50:57;;;;;;;7.18;6.35;;;31.90;51.70;;;;;;6213183;23;20039;-89
2021/07/30 14:53:44;;;;;;;6.72;5.72;;;31.00;53.30;;;;;;6195619;23;20069;-88
2021/07/30 14:56:33;;;;;;;8.10;5.70;;;30.30;54.80;;;;;;6212809;23;20024;-88
2021/07/30 14:59:21;;;;;;;7.47;5.80;;;30.00;55.60;;;;;;6213700;23;20028;-89
2021/07/30 15:02:08;;;;;;;8.45;6.10;;;29.30;57.00;;;;;;6191379;23;20021;-89
2021/07/30 15:04:58;;;;;;;6.55;5.88;;;28.80;59.10;;;;;;6191845;23;20086;-88
2021/07/30 15:07:45;;;;;;;9.48;5.57;;;28.90;57.70;;;;;;6191600;23;20620;-87
2021/07/30 15:10:33;;;;;;;8.00;5.95;;;28.90;57.70;;;;;;6190756;23;20024;-90
2021/07/30 15:13:20;;;;;;;7.57;5.80;;;29.20;58.40;;;;;;6193046;23;20095;-90
2021/07/30 15:16:07;;;;;;;8.10;5.05;;;29.80;57.40;;;;;;6212803;23;20024;-89
2021/07/30 15:18:55;;;;;;;6.55;5.78;;;30.50;55.30;;;;;;6214301;23;20028;-89
2021/07/30 15:21:43;;;;;;;7.55;6.43;;;30.90;54.80;;;;;;6172337;23;20028;-90
2021/07/30 15:24:31;;;;;;;6.75;6.05;;;30.80;54.70;;;;;;6214145;23;20443;-91
2021/07/30 15:27:21;;;;;;;7.20;6.50;;;30.10;56.50;;;;;;6213113;23;20459;-92
2021/07/30 15:30:08;;;;;;;11.57;6.30;;;29.10;58.40;;;;;;6212854;23;20036;-90
2021/07/30 15:32:55;;;;;;;9.02;5.78;;;28.60;61.10;;;;;;6214343;23;20093;-90
2021/07/30 15:35:42;;;;;;;6.65;5.90;;;28.30;62.20;;;;;;6211330;23;20051;-91
2021/07/30 15:38:32;;;;;;;8.63;6.28;;;28.20;61.70;;;;;;6213074;23;20024;-90
2021/07/30 15:41:26;;;;;;;9.52;6.45;;;27.90;62.10;;;;;;6214370;23;20026;-88
2021/07/30 15:44:16;;;;;;;8.75;6.38;;;27.70;63.40;;;;;;6213714;23;20028;-88
2021/07/30 15:47:06;;;;;;;8.27;6.35;;;27.30;64.80;;;;;;6212769;23;20094;-87
2021/07/30 15:49:53;;;;;;;8.70;6.72;;;27.00;65.10;;;;;;6190899;23;20102;-89
2021/07/30 15:52:40;;;;;;;7.97;6.80;;;26.80;65.90;;;;;;6192370;23;20035;-88
2021/07/30 15:55:28;;;;;;;9.07;6.72;;;26.60;66.30;;;;;;6212881;23;20519;-89